ACA9737 EIDW-CYUL
Flight info
| Callsign | ACA9737 |
|---|---|
| Flight time | N/A |
| Altitude | 38000 |
| Route | INKUR8E INKUR DCT RESNO/M082F380 NATB LOMSI/N0486F400 N668A TAFFY DCT KEBIG ROCKT3 |
| Aircraft | B77L/H-SDE1E2E3FGHIJ2J3J4J5M1RWXY/LB1D1 |
Departure
| Time | 2026-05-04 10:16 |
|---|---|
| Airport | Dublin Airport (EIDW) |
Arrival
| Time | N/A |
|---|---|
| Airport | Montreal / Pierre Elliott Trudeau International Airport (CYUL) |
| Time | Latitude | Longitude | Altitude | Speed | Heading |
|---|---|---|---|---|---|
| 2026-05-04 09:43 | 53.42445 | -6.24370 | 215 ft | 0 kts | 136° |
| 2026-05-04 10:00 | 53.42529 | -6.24403 | 215 ft | 0 kts | 213° |
| 2026-05-04 10:05 | 53.42529 | -6.24404 | 215 ft | 0 kts | 213° |
| 2026-05-04 10:05 | 53.42526 | -6.24407 | 215 ft | 1 kts | 219° |
| 2026-05-04 10:05 | 53.42494 | -6.24460 | 221 ft | 12 kts | 226° |
| 2026-05-04 10:06 | 53.42441 | -6.24555 | 222 ft | 8 kts | 230° |
| 2026-05-04 10:06 | 53.42424 | -6.24649 | 222 ft | 9 kts | 277° |
| 2026-05-04 10:06 | 53.42462 | -6.24736 | 222 ft | 11 kts | 324° |
| 2026-05-04 10:08 | 53.42778 | -6.25270 | 222 ft | 14 kts | 232° |
| 2026-05-04 10:08 | 53.42753 | -6.25316 | 224 ft | 0 kts | 227° |
| 2026-05-04 10:09 | 53.42738 | -6.25344 | 224 ft | 10 kts | 227° |
| 2026-05-04 10:09 | 53.42663 | -6.25480 | 216 ft | 21 kts | 227° |
| 2026-05-04 10:09 | 53.42540 | -6.25689 | 221 ft | 27 kts | 225° |
| 2026-05-04 10:10 | 53.42424 | -6.25887 | 223 ft | 22 kts | 225° |
| 2026-05-04 10:10 | 53.42322 | -6.26059 | 221 ft | 22 kts | 225° |
| 2026-05-04 10:10 | 53.42266 | -6.26286 | 222 ft | 22 kts | 270° |
| 2026-05-04 10:10 | 53.42280 | -6.26545 | 223 ft | 20 kts | 275° |
| 2026-05-04 10:11 | 53.42292 | -6.26758 | 215 ft | 19 kts | 275° |
| 2026-05-04 10:11 | 53.42304 | -6.26995 | 222 ft | 21 kts | 275° |
| 2026-05-04 10:11 | 53.42317 | -6.27240 | 217 ft | 21 kts | 275° |
| 2026-05-04 10:11 | 53.42332 | -6.27491 | 215 ft | 23 kts | 275° |
| 2026-05-04 10:12 | 53.42347 | -6.27766 | 222 ft | 25 kts | 275° |
| 2026-05-04 10:12 | 53.42364 | -6.28061 | 223 ft | 26 kts | 275° |
| 2026-05-04 10:12 | 53.42381 | -6.28372 | 222 ft | 27 kts | 275° |
| 2026-05-04 10:12 | 53.42397 | -6.28685 | 215 ft | 27 kts | 276° |
| 2026-05-04 10:13 | 53.42407 | -6.28951 | 217 ft | 22 kts | 262° |
| 2026-05-04 10:13 | 53.42298 | -6.29061 | 218 ft | 16 kts | 173° |
| 2026-05-04 10:13 | 53.42237 | -6.28936 | 221 ft | 16 kts | 90° |
| 2026-05-04 10:13 | 53.42235 | -6.28866 | 222 ft | 7 kts | 94° |
| 2026-05-04 10:14 | 53.42228 | -6.28679 | 216 ft | 37 kts | 94° |
| 2026-05-04 10:14 | 53.42164 | -6.27578 | 222 ft | 151 kts | 94° |
| 2026-05-04 10:16 | 53.41115 | -6.08636 | 6775 ft | 260 kts | 93° |
| 2026-05-04 10:16 | 53.40948 | -6.05605 | 7650 ft | 263 kts | 93° |
| 2026-05-04 10:16 | 53.41054 | -6.02572 | 8368 ft | 265 kts | 69° |
| 2026-05-04 10:16 | 53.42060 | -6.00034 | 8995 ft | 265 kts | 39° |
| 2026-05-04 10:17 | 53.43697 | -5.98615 | 9079 ft | 269 kts | 11° |
| 2026-05-04 10:17 | 53.45533 | -5.98750 | 9092 ft | 268 kts | 339° |
| 2026-05-04 10:19 | 53.48902 | -6.19960 | 14051 ft | 293 kts | 280° |
| 2026-05-04 10:19 | 53.49211 | -6.23371 | 14849 ft | 297 kts | 280° |
| 2026-05-04 10:19 | 53.49525 | -6.26778 | 15610 ft | 302 kts | 281° |
| 2026-05-04 10:19 | 53.49859 | -6.30350 | 16076 ft | 306 kts | 280° |
| 2026-05-04 10:20 | 53.50196 | -6.33916 | 16073 ft | 311 kts | 280° |
| 2026-05-04 10:20 | 53.50535 | -6.37502 | 16082 ft | 310 kts | 281° |
| 2026-05-04 10:20 | 53.50873 | -6.41069 | 16073 ft | 308 kts | 281° |
| 2026-05-04 10:20 | 53.51209 | -6.44609 | 16071 ft | 307 kts | 281° |
| 2026-05-04 10:21 | 53.51542 | -6.48120 | 16091 ft | 315 kts | 281° |
| 2026-05-04 10:21 | 53.51901 | -6.51897 | 16104 ft | 336 kts | 281° |
| 2026-05-04 10:21 | 53.52269 | -6.55802 | 16090 ft | 339 kts | 281° |
| 2026-05-04 10:21 | 53.52637 | -6.59719 | 16086 ft | 339 kts | 280° |
| 2026-05-04 10:22 | 53.53366 | -6.67542 | 16078 ft | 339 kts | 280° |
| 2026-05-04 10:22 | 53.53729 | -6.71456 | 16088 ft | 339 kts | 280° |
| 2026-05-04 10:22 | 53.54092 | -6.75383 | 16067 ft | 339 kts | 280° |
| 2026-05-04 10:23 | 53.54454 | -6.79311 | 16073 ft | 339 kts | 281° |
| 2026-05-04 10:23 | 53.54815 | -6.83241 | 16078 ft | 339 kts | 280° |
| 2026-05-04 10:25 | 53.57224 | -7.11021 | 19543 ft | 356 kts | 281° |
| 2026-05-04 10:25 | 53.57607 | -7.15170 | 20268 ft | 361 kts | 281° |
| 2026-05-04 10:25 | 53.57997 | -7.19386 | 20997 ft | 366 kts | 281° |
| 2026-05-04 10:25 | 53.58391 | -7.23663 | 21728 ft | 371 kts | 281° |
| 2026-05-04 10:26 | 53.58789 | -7.27987 | 22447 ft | 376 kts | 282° |
| 2026-05-04 10:26 | 53.59190 | -7.32366 | 23180 ft | 381 kts | 282° |
| 2026-05-04 10:26 | 53.59595 | -7.36812 | 23867 ft | 387 kts | 282° |
| 2026-05-04 10:26 | 53.60110 | -7.41269 | 24486 ft | 388 kts | 290° |
| 2026-05-04 10:27 | 53.61005 | -7.45566 | 25136 ft | 390 kts | 295° |
| 2026-05-04 10:27 | 53.61990 | -7.49778 | 25752 ft | 394 kts | 296° |
| 2026-05-04 10:27 | 53.63008 | -7.54088 | 26383 ft | 398 kts | 296° |
| 2026-05-04 10:27 | 53.64025 | -7.58454 | 27010 ft | 402 kts | 296° |
| 2026-05-04 10:28 | 53.65039 | -7.62883 | 27623 ft | 407 kts | 296° |
| 2026-05-04 10:28 | 53.66048 | -7.67364 | 28228 ft | 411 kts | 296° |
| 2026-05-04 10:28 | 53.67064 | -7.71926 | 28695 ft | 420 kts | 295° |
| 2026-05-04 10:28 | 53.68093 | -7.76586 | 29179 ft | 427 kts | 295° |
| 2026-05-04 10:29 | 53.69128 | -7.81307 | 29760 ft | 431 kts | 295° |
| 2026-05-04 10:29 | 53.70169 | -7.86082 | 30339 ft | 434 kts | 295° |
| 2026-05-04 10:29 | 53.71213 | -7.90890 | 30854 ft | 438 kts | 295° |
| 2026-05-04 10:29 | 53.72264 | -7.95736 | 31321 ft | 441 kts | 295° |
| 2026-05-04 10:30 | 53.73322 | -8.00626 | 31793 ft | 445 kts | 295° |
| 2026-05-04 10:30 | 53.74384 | -8.05547 | 32341 ft | 446 kts | 294° |
| 2026-05-04 10:30 | 53.75446 | -8.10476 | 32833 ft | 448 kts | 294° |
| 2026-05-04 10:30 | 53.76504 | -8.15399 | 33221 ft | 453 kts | 294° |
| 2026-05-04 10:31 | 53.77583 | -8.20424 | 33597 ft | 457 kts | 294° |
| 2026-05-04 10:31 | 53.78670 | -8.25501 | 33986 ft | 461 kts | 294° |
| 2026-05-04 10:32 | 53.85252 | -8.56539 | 36146 ft | 471 kts | 292° |
| 2026-05-04 10:33 | 53.86352 | -8.61772 | 36432 ft | 473 kts | 292° |
| 2026-05-04 10:33 | 53.87444 | -8.66977 | 36701 ft | 475 kts | 292° |
| 2026-05-04 10:33 | 53.88550 | -8.72262 | 36974 ft | 477 kts | 292° |
| 2026-05-04 10:33 | 53.89655 | -8.77563 | 37250 ft | 478 kts | 292° |
| 2026-05-04 10:34 | 53.90765 | -8.82895 | 37510 ft | 480 kts | 292° |
| 2026-05-04 10:34 | 53.91875 | -8.88247 | 37759 ft | 481 kts | 292° |
| 2026-05-04 10:34 | 53.92984 | -8.93606 | 38019 ft | 482 kts | 291° |
| 2026-05-04 10:34 | 53.94099 | -8.99005 | 38062 ft | 485 kts | 291° |
| 2026-05-04 10:35 | 53.96338 | -9.09893 | 38106 ft | 491 kts | 291° |
| 2026-05-04 10:35 | 53.98595 | -9.20929 | 38118 ft | 497 kts | 291° |
| 2026-05-04 10:36 | 54.00863 | -9.32085 | 38125 ft | 500 kts | 291° |
| 2026-05-04 10:36 | 54.02734 | -9.41347 | 38117 ft | 496 kts | 291° |
| 2026-05-04 10:37 | 54.04958 | -9.52408 | 38121 ft | 493 kts | 291° |